Delemont, Switzerland
Current Conditions -  °F | °C
As of 4:50 AM on Sunday 25 Jan 2015 (Local Time) from LSZG Reporting Station
Broken Clouds Broken Clouds  
Wind Chill: 27°   Ceiling: 3700
Heat Index: 36°   Visibility: 6mi
Dew Point: 27°   Wind: 13mph
Humidity: 70%   Direction: NA
Pressure: 30.3"   Gusts: NA
Location:  47.37°N, 7.33°E
Report Text: LSZG 250350Z AUTO VRB11KT 9999 FEW029 BKN037 BKN042 02/M03 Q1026
Loading
Personal Weather Stations






























Interactive Weather Map New forecast layout! Learn more

10-Day Weather Forecast

Advertisements
Track Severe Weather on mobile